KDIK/DIK METAR and TAF weather

Enter ICAO airport designator
Station Type Date Time Source
KDIK METAR 2019/04/21 21:56 UTC NOAA

KDIK 212156Z AUTO 03010G19KT 10SM CLR 14/02 A3008 RMK AO2 SLP191 T01390017


Station Type Date Time Source
KDIK Decoded METAR 2019/04/21 21:56 UTC NOAA

THEODORE ROOSEVELT REGIONAL, ND, United States (KDIK) 46-48N 102-48W 788M
Apr 21, 2019 - 05:56 PM EDT / 2019.04.21 2156 UTC
Wind: from the NNE (030 degrees) at 12 MPH (10 KT) gusting to 22 MPH (19 KT):0
Visibility: 10 mile(s):0
Sky conditions: clear
Temperature: 57.0 F (13.9 C)
Dew Point: 35.1 F (1.7 C)
Relative Humidity: 43%
Pressure (altimeter): 30.08 in. Hg (1018 hPa)
ob: KDIK 212156Z AUTO 03010G19KT 10SM CLR 14/02 A3008 RMK AO2 SLP191 T01390017
cycle: 22

Station Type Date Time Source
KDIK TAF 2019/04/21 18:28 UTC NOAA

TAF KDIK 211726Z 2118/2218 03015KT P6SM VCSH SCT040 OVC070
FM212000 04012KT P6SM SCT035 OVC070
FM220200 03005KT P6SM SCT060 BKN150

Example: see airport list